Time;durP1;ratioP1;P1;durP2;ratioP2;P2;SDS_P1;SDS_P2;PMS_P1;PMS_P2;Temp;Humidity;BMP_temperature;BMP_pressure;BME280_temperature;BME280_humidity;BME280_pressure;Samples;Min_cycle;Max_cycle;Signal;HPM_P1;HPM_P2
2022/06/30 00:00:09;;;;;;;3.67;3.03;;;;;;;17.13;64.01;96377.00;5014666;28;20045;-62
2022/06/30 00:02:37;;;;;;;4.53;3.40;;;;;;;17.09;64.06;96375.53;5014714;28;20352;-62
2022/06/30 00:05:04;;;;;;;6.35;3.15;;;;;;;17.04;64.11;96375.81;5014697;28;20484;-62
2022/06/30 00:07:31;;;;;;;6.68;3.20;;;;;;;17.03;64.29;96374.13;5014627;28;20084;-62
2022/06/30 00:09:58;;;;;;;5.32;3.20;;;;;;;17.01;64.39;96372.53;5014508;28;20049;-62
2022/06/30 00:12:27;;;;;;;4.20;3.60;;;;;;;16.93;64.32;96370.41;5014398;28;20072;-62
2022/06/30 00:14:57;;;;;;;6.15;3.08;;;;;;;16.91;64.57;96367.88;5013998;28;20050;-62
2022/06/30 00:17:24;;;;;;;3.58;3.28;;;;;;;16.78;64.29;96375.75;5013825;28;20463;-62
2022/06/30 00:19:51;;;;;;;9.35;3.25;;;;;;;16.79;65.02;96372.16;5014264;28;20052;-62
2022/06/30 00:22:18;;;;;;;4.05;3.17;;;;;;;16.78;64.84;96373.13;5014345;28;20060;-62
2022/06/30 00:24:46;;;;;;;4.18;3.20;;;;;;;16.84;64.40;96377.16;5014315;28;20046;-62
2022/06/30 00:27:13;;;;;;;4.95;3.10;;;;;;;16.87;64.54;96369.03;5013877;28;20053;-62
2022/06/30 00:29:42;;;;;;;6.15;3.55;;;;;;;16.79;64.21;96368.66;5014073;28;20068;-62
2022/06/30 00:32:09;;;;;;;3.72;3.20;;;;;;;16.83;64.83;96364.03;5014107;28;20050;-62
2022/06/30 00:34:37;;;;;;;4.32;3.35;;;;;;;16.86;64.71;96364.66;5014041;28;20459;-62
2022/06/30 00:37:04;;;;;;;3.55;3.25;;;;;;;16.88;64.63;96370.72;5014027;28;20590;-62
2022/06/30 00:39:31;;;;;;;4.25;2.80;;;;;;;16.88;64.68;96368.06;5013906;28;20408;-62
2022/06/30 00:41:59;;;;;;;4.85;3.72;;;;;;;16.93;64.58;96365.13;5013878;28;20105;-62
2022/06/30 00:44:26;;;;;;;7.25;3.47;;;;;;;16.93;64.19;96362.47;5013964;28;20045;-62
2022/06/30 00:46:55;;;;;;;4.95;3.40;;;;;;;16.92;64.20;96363.44;5013937;28;20476;-62
2022/06/30 00:49:22;;;;;;;5.78;3.33;;;;;;;16.90;64.05;96354.75;5014136;28;20045;-62
2022/06/30 00:51:49;;;;;;;3.35;3.05;;;;;;;16.90;63.49;96358.25;5013766;28;20045;-62
2022/06/30 00:54:17;;;;;;;5.78;3.33;;;;;;;16.92;63.10;96360.78;5013728;28;20049;-62
2022/06/30 00:56:47;;;;;;;6.53;2.85;;;;;;;16.88;63.33;96365.44;5013757;28;20053;-62
2022/06/30 00:59:17;;;;;;;3.53;3.00;;;;;;;16.86;63.38;96361.19;5013656;28;20554;-62
2022/06/30 01:01:46;;;;;;;7.20;2.85;;;;;;;16.86;64.15;96361.19;5013593;28;20092;-62
2022/06/30 01:04:15;;;;;;;3.72;2.97;;;;;;;16.86;64.37;96361.19;5013560;28;20096;-62
2022/06/30 01:06:44;;;;;;;5.85;3.22;;;;;;;16.82;64.26;96351.78;5013487;28;20052;-62
2022/06/30 01:09:11;;;;;;;5.50;2.97;;;;;;;16.82;64.37;96365.00;5013688;28;20050;-62
2022/06/30 01:14:22;;;;;;;8.25;2.80;;;;;;;16.74;64.23;96361.03;5013484;28;20057;-62
2022/06/30 01:16:49;;;;;;;3.15;2.70;;;;;;;16.76;63.94;96364.44;5013419;28;20057;-62
2022/06/30 01:19:18;;;;;;;5.88;2.72;;;;;;;16.71;64.26;96360.41;5013396;28;20045;-62
2022/06/30 01:22:01;;;;;;;3.17;2.80;;;;;;;16.65;64.82;96367.78;5013363;28;20073;-62
2022/06/30 01:24:28;;;;;;;3.38;3.08;;;;;;;16.63;64.73;96361.78;5013328;28;20089;-62
2022/06/30 01:26:59;;;;;;;5.50;3.10;;;;;;;16.63;65.00;96363.56;5012996;28;20412;-62
2022/06/30 01:29:26;;;;;;;7.53;3.05;;;;;;;16.55;64.82;96374.59;5013201;28;20100;-62
2022/06/30 01:31:53;;;;;;;3.22;2.97;;;;;;;16.58;65.25;96368.31;5013194;28;20064;-62
2022/06/30 01:34:20;;;;;;;5.43;2.90;;;;;;;16.57;65.34;96371.88;5013202;28;20050;-62
2022/06/30 01:36:47;;;;;;;5.60;3.22;;;;;;;16.53;65.35;96376.53;5013191;28;20381;-62
2022/06/30 01:39:16;;;;;;;5.85;3.08;;;;;;;16.54;65.71;96376.41;5013187;28;20045;-62
2022/06/30 01:41:43;;;;;;;3.78;3.33;;;;;;;16.53;65.33;96380.00;5013212;28;20042;-62
2022/06/30 01:44:11;;;;;;;3.28;2.97;;;;;;;16.54;65.51;96375.56;5013209;28;20132;-62
2022/06/30 01:46:38;;;;;;;5.22;3.30;;;;;;;16.53;65.60;96372.06;5013116;28;20128;-62
2022/06/30 01:49:05;;;;;;;5.80;3.13;;;;;;;16.49;65.75;96375.00;5013069;28;20054;-62
2022/06/30 01:51:32;;;;;;;3.20;2.45;;;;;;;16.46;65.91;96372.59;5013088;28;20555;-62
2022/06/30 01:53:59;;;;;;;5.80;3.58;;;;;;;16.42;66.12;96374.56;5012897;28;20050;-62
2022/06/30 01:56:28;;;;;;;4.88;3.90;;;;;;;16.39;66.44;96369.47;5013030;28;20041;-62
2022/06/30 01:58:55;;;;;;;4.75;3.67;;;;;;;16.36;66.52;96372.31;5013025;28;20104;-62
2022/06/30 02:01:22;;;;;;;4.75;3.30;;;;;;;16.36;66.01;96372.31;5012867;28;20161;-62
2022/06/30 02:03:49;;;;;;;4.18;3.53;;;;;;;16.33;65.61;96367.22;5012995;28;20054;-62
2022/06/30 02:06:16;;;;;;;6.30;3.22;;;;;;;16.34;65.62;96368.94;5012864;28;20412;-62
2022/06/30 02:08:43;;;;;;;5.95;3.70;;;;;;;16.38;66.46;96373.91;5012957;28;20042;-62
2022/06/30 02:11:10;;;;;;;4.03;3.47;;;;;;;16.37;66.47;96369.59;5013004;28;20045;-62
2022/06/30 02:13:39;;;;;;;5.00;3.35;;;;;;;16.37;66.60;96369.59;5012722;28;20471;-62
2022/06/30 02:16:06;;;;;;;5.90;3.35;;;;;;;16.29;66.42;96366.59;5012774;28;20054;-62
2022/06/30 02:18:33;;;;;;;3.90;3.50;;;;;;;16.31;66.80;96374.41;5012760;28;20042;-62
2022/06/30 02:21:00;;;;;;;6.95;3.80;;;;;;;16.33;66.89;96380.44;5012864;28;20096;-62
2022/06/30 02:23:28;;;;;;;3.80;3.45;;;;;;;16.27;66.92;96376.41;5012820;28;20050;-62
2022/06/30 02:25:55;;;;;;;5.90;4.00;;;;;;;16.29;67.13;96372.69;5012808;28;20049;-62
2022/06/30 02:28:22;;;;;;;5.60;3.47;;;;;;;16.25;66.79;96387.03;5012526;28;20050;-62
2022/06/30 02:30:51;;;;;;;5.18;3.15;;;;;;;16.23;67.15;96380.19;5012816;28;20461;-62
2022/06/30 02:33:18;;;;;;;4.00;3.63;;;;;;;16.22;67.20;96389.88;5012702;28;20053;-62
2022/06/30 02:35:45;;;;;;;4.65;2.95;;;;;;;16.17;66.97;96391.97;5012690;28;20050;-62
2022/06/30 02:38:12;;;;;;;5.60;3.63;;;;;;;16.18;67.42;96393.66;5012612;28;20484;-62
2022/06/30 02:40:39;;;;;;;5.80;3.42;;;;;;;16.10;67.46;96390.66;5015906;28;20054;-62
2022/06/30 02:43:06;;;;;;;5.03;3.78;;;;;;;16.11;67.47;96395.00;5016160;28;20053;-62
2022/06/30 02:45:34;;;;;;;8.65;3.35;;;;;;;16.09;67.61;96391.59;5016159;28;20136;-62
2022/06/30 02:48:02;;;;;;;4.78;3.65;;;;;;;16.02;67.85;96396.44;5016082;28;20046;-62
2022/06/30 02:50:29;;;;;;;4.68;4.13;;;;;;;16.00;68.01;96391.25;5015888;28;20049;-62
2022/06/30 02:52:57;;;;;;;4.93;3.72;;;;;;;15.98;68.27;96398.38;5015961;28;20054;-62
2022/06/30 02:55:24;;;;;;;5.32;3.55;;;;;;;16.00;68.29;96393.88;5015834;28;20137;-62
2022/06/30 02:57:51;;;;;;;6.45;3.60;;;;;;;16.07;68.20;96393.50;5015961;28;20046;-62
2022/06/30 03:00:19;;;;;;;5.55;3.90;;;;;;;16.03;68.09;96388.41;5015901;28;20054;-62
2022/06/30 03:02:46;;;;;;;7.50;3.55;;;;;;;15.97;68.36;96390.56;5015769;28;20050;-62
2022/06/30 03:05:15;;;;;;;7.20;3.28;;;;;;;15.99;68.29;96386.06;5015670;28;20050;-62
2022/06/30 03:07:42;;;;;;;8.60;3.65;;;;;;;16.00;68.27;96398.28;5015931;28;20082;-62
2022/06/30 03:10:09;;;;;;;6.45;3.72;;;;;;;16.03;68.11;96398.97;5015615;28;20050;-62
2022/06/30 03:12:38;;;;;;;4.30;3.50;;;;;;;16.03;67.87;96398.97;5015642;28;20054;-62
2022/06/30 03:15:06;;;;;;;5.95;3.60;;;;;;;16.13;68.26;96401.00;5015454;28;20496;-62
2022/06/30 03:17:33;;;;;;;4.75;3.67;;;;;;;16.15;68.17;96396.50;5015445;28;20084;-62
2022/06/30 03:20:00;;;;;;;5.68;3.42;;;;;;;16.20;68.18;96396.19;5015375;28;20115;-62
2022/06/30 03:22:29;;;;;;;5.30;3.47;;;;;;;16.23;68.11;96394.22;5015434;28;20042;-62
2022/06/30 03:24:56;;;;;;;6.97;4.28;;;;;;;16.23;68.00;96390.72;5015375;28;20480;-62
2022/06/30 03:27:23;;;;;;;7.13;3.55;;;;;;;16.20;68.08;96388.28;5015202;28;20046;-62
2022/06/30 03:29:50;;;;;;;3.83;3.47;;;;;;;16.13;67.69;96386.03;5015303;28;20519;-62
2022/06/30 03:32:17;;;;;;;5.25;3.25;;;;;;;16.26;67.98;96382.63;5015225;28;20053;-62
2022/06/30 03:34:44;;;;;;;5.50;3.67;;;;;;;16.59;67.40;96380.56;5015146;28;20135;-62
2022/06/30 03:37:11;;;;;;;5.35;3.50;;;;;;;16.94;66.37;96390.59;5015099;28;20440;-62
2022/06/30 03:39:40;;;;;;;4.72;3.20;;;;;;;17.35;65.33;96390.59;5015053;28;20061;-62
2022/06/30 03:42:08;;;;;;;6.82;3.17;;;;;;;17.68;64.34;96391.88;5014944;28;20057;-62
2022/06/30 03:44:35;;;;;;;5.00;3.00;;;;;;;18.11;63.58;96392.47;5015003;28;20046;-63
2022/06/30 03:47:02;;;;;;;5.25;3.83;;;;;;;18.53;62.15;96397.44;5014947;28;20507;-63
2022/06/30 03:49:29;;;;;;;3.35;3.05;;;;;;;18.95;61.16;96402.34;5014764;28;20050;-63
2022/06/30 03:51:56;;;;;;;4.47;3.08;;;;;;;19.35;59.83;96397.69;5014903;28;20552;-62
2022/06/30 03:54:24;;;;;;;3.38;2.78;;;;;;;19.75;58.72;96402.56;5014743;28;20057;-63
2022/06/30 03:56:52;;;;;;;4.85;2.88;;;;;;;20.13;57.87;96405.00;5014895;28;20463;-63
2022/06/30 03:59:19;;;;;;;6.55;3.05;;;;;;;20.51;56.89;96405.56;5014779;28;20108;-63
2022/06/30 04:01:46;;;;;;;6.38;2.70;;;;;;;20.88;55.71;96401.72;5014823;28;20053;-63
2022/06/30 04:04:13;;;;;;;4.28;3.22;;;;;;;21.19;55.24;96402.72;5014639;28;20099;-63
2022/06/30 04:06:40;;;;;;;7.35;3.95;;;;;;;21.50;54.38;96399.28;5014590;28;20081;-63
2022/06/30 04:09:08;;;;;;;6.13;2.90;;;;;;;21.92;52.98;96402.91;5014569;28;20491;-63
2022/06/30 04:11:35;;;;;;;9.30;3.00;;;;;;;22.27;53.15;96400.81;5014487;28;20057;-63
2022/06/30 04:14:03;;;;;;;3.63;2.85;;;;;;;22.56;52.27;96402.69;5014485;28;20049;-63
2022/06/30 04:16:31;;;;;;;4.93;3.15;;;;;;;22.85;51.78;96404.59;5014427;28;20046;-63
2022/06/30 04:18:58;;;;;;;3.95;2.70;;;;;;;23.09;51.73;96406.00;5014442;28;20052;-62
2022/06/30 04:21:26;;;;;;;4.82;2.53;;;;;;;23.34;51.25;96401.06;5014348;28;20443;-63
2022/06/30 04:23:53;;;;;;;3.55;2.60;;;;;;;23.65;51.08;96403.59;5014320;28;20046;-63
2022/06/30 04:26:20;;;;;;;6.72;2.97;;;;;;;23.94;49.66;96408.00;5014156;28;20077;-63
2022/06/30 04:28:47;;;;;;;5.28;3.00;;;;;;;24.33;49.00;96404.38;5014093;28;20046;-63
2022/06/30 04:34:14;;;;;;;4.95;3.00;;;;;;;24.96;49.23;96419.75;4973039;28;20046;-64
2022/06/30 04:36:42;;;;;;;7.05;3.05;;;;;;;25.26;48.91;96416.84;4973008;28;20077;-63
2022/06/30 04:39:09;;;;;;;3.75;2.67;;;;;;;25.52;47.18;96408.84;4990885;28;20046;-63
2022/06/30 04:41:36;;;;;;;3.45;2.95;;;;;;;25.78;46.27;96413.41;5013979;28;20446;-63
2022/06/30 04:44:05;;;;;;;3.65;2.58;;;;;;;26.08;45.74;96410.41;5013838;28;20045;-63
2022/06/30 04:46:33;;;;;;;6.68;2.85;;;;;;;26.40;46.91;96410.75;5013869;28;20042;-63
2022/06/30 04:49:00;;;;;;;3.88;2.83;;;;;;;26.75;45.33;96420.41;5013994;28;20061;-63
2022/06/30 04:51:28;;;;;;;2.45;2.22;;;;;;;26.93;44.49;96416.75;5013721;28;20046;-63
2022/06/30 04:53:55;;;;;;;7.10;2.95;;;;;;;27.12;44.92;96418.31;5013857;28;20096;-63
2022/06/30 04:56:23;;;;;;;4.13;2.53;;;;;;;27.18;44.52;96411.44;5013746;28;20108;-63
2022/06/30 04:58:50;;;;;;;3.90;2.65;;;;;;;27.52;44.09;96416.81;5013782;28;20050;-63
2022/06/30 05:01:17;;;;;;;5.30;2.80;;;;;;;27.66;43.46;96409.97;5013324;28;20045;-63
2022/06/30 05:03:46;;;;;;;3.53;3.22;;;;;;;27.92;43.64;96406.19;5013606;28;20048;-63
2022/06/30 05:06:13;;;;;;;3.15;2.85;;;;;;;28.30;44.79;96416.38;5013769;28;20132;-63
2022/06/30 05:08:40;;;;;;;5.80;2.97;;;;;;;28.59;44.66;96407.66;5013591;28;20042;-63
2022/06/30 05:11:07;;;;;;;4.32;2.80;;;;;;;28.86;43.08;96410.03;5013679;28;20050;-63
2022/06/30 05:13:35;;;;;;;2.75;2.42;;;;;;;29.12;42.04;96416.97;5013600;28;20054;-63
2022/06/30 05:16:04;;;;;;;5.47;3.10;;;;;;;29.38;39.45;96421.16;5013597;28;20428;-63
2022/06/30 05:18:33;;;;;;;7.40;3.40;;;;;;;29.66;38.07;96426.00;5013556;28;20058;-63
2022/06/30 05:21:01;;;;;;;3.17;2.80;;;;;;;29.93;38.00;96425.56;5013453;28;20081;-63
2022/06/30 05:23:28;;;;;;;4.70;2.70;;;;;;;30.17;37.90;96423.66;5013520;28;20042;-63
2022/06/30 05:28:41;;;;;;;3.42;2.80;;;;;;;30.66;37.30;96432.19;5013268;28;20082;-63
2022/06/30 05:31:08;;;;;;;7.05;3.00;;;;;;;30.83;36.38;96422.03;5013476;28;20046;-63
2022/06/30 05:33:35;;;;;;;5.40;2.90;;;;;;;30.95;36.64;96425.91;5013377;28;20245;-63
2022/06/30 05:36:04;;;;;;;7.05;2.95;;;;;;;30.86;36.19;96427.91;5013308;28;20054;-63
2022/06/30 05:38:31;;;;;;;4.38;2.75;;;;;;;30.85;35.83;96431.59;5013353;28;20378;-63
2022/06/30 05:40:58;;;;;;;8.32;2.92;;;;;;;31.07;35.89;96434.34;5013253;28;20500;-64
2022/06/30 05:43:25;;;;;;;6.70;2.90;;;;;;;31.33;37.57;96446.44;5013255;28;20054;-63
2022/06/30 05:45:54;;;;;;;8.15;2.80;;;;;;;31.62;39.04;96446.50;5013208;28;20389;-63
2022/06/30 05:48:21;;;;;;;6.55;2.85;;;;;;;31.87;36.89;96446.06;5013281;28;20416;-63
2022/06/30 05:50:49;;;;;;;5.82;2.70;;;;;;;32.13;36.21;96450.03;5013156;28;20069;-63
2022/06/30 05:53:18;;;;;;;3.90;2.78;;;;;;;32.37;35.81;96448.72;5013096;28;20046;-63
2022/06/30 05:55:45;;;;;;;5.53;2.75;;;;;;;32.55;34.04;96450.09;5013066;28;20061;-63
2022/06/30 05:58:15;;;;;;;6.35;3.50;;;;;;;32.74;34.72;96453.06;5013072;28;20046;-64
2022/06/30 06:00:42;;;;;;;3.42;3.08;;;;;;;32.96;34.26;96450.25;5013038;28;20048;-64
2022/06/30 06:03:09;;;;;;;5.82;2.50;;;;;;;33.17;34.23;96452.00;5013141;28;20045;-63
2022/06/30 06:05:36;;;;;;;7.30;2.90;;;;;;;33.25;34.39;96446.38;5012996;28;20050;-63
2022/06/30 06:08:08;;;;;;;5.63;2.67;;;;;;;33.43;32.44;96442.22;5012994;28;20057;-63
2022/06/30 06:10:36;;;;;;;7.00;3.08;;;;;;;33.59;31.77;96443.72;5012890;28;20484;-63
2022/06/30 06:13:04;;;;;;;4.13;2.70;;;;;;;33.36;32.58;96444.09;5012850;28;20081;-63
2022/06/30 06:15:31;;;;;;;8.48;2.45;;;;;;;33.43;32.53;96444.13;5015959;28;20486;-63
2022/06/30 06:17:58;;;;;;;8.77;1.88;;;;;;;33.55;30.63;96444.34;5016608;28;20048;-63
2022/06/30 06:20:25;;;;;;;8.05;2.50;;;;;;;33.59;30.21;96446.44;5016713;28;20061;-63
2022/06/30 06:22:53;;;;;;;6.07;1.98;;;;;;;33.58;28.88;96431.19;5016606;28;20510;-63
2022/06/30 06:25:20;;;;;;;12.82;2.28;;;;;;;33.57;29.80;96443.09;5016588;28;20050;-63
2022/06/30 06:30:31;;;;;;;6.45;1.98;;;;;;;33.85;29.84;96439.34;5016349;28;20113;-63
2022/06/30 06:32:58;;;;;;;7.32;2.17;;;;;;;33.46;29.47;96439.09;5016442;28;20053;-63
2022/06/30 06:35:25;;;;;;;4.30;2.20;;;;;;;33.47;30.03;96435.34;5016283;28;20599;-63
2022/06/30 06:37:52;;;;;;;6.40;2.15;;;;;;;33.48;28.31;96436.19;5016281;28;20132;-63
2022/06/30 06:40:19;;;;;;;3.15;2.33;;;;;;;33.61;30.30;96427.25;5016210;28;20042;-63
2022/06/30 06:42:48;;;;;;;4.75;1.98;;;;;;;33.73;31.22;96431.03;5016095;28;20078;-63
2022/06/30 06:45:15;;;;;;;5.07;2.17;;;;;;;33.72;30.72;96431.22;5016163;28;20100;-63
2022/06/30 06:47:43;;;;;;;6.13;2.20;;;;;;;33.89;28.77;96426.22;5016159;28;20042;-63
2022/06/30 06:50:10;;;;;;;8.40;2.05;;;;;;;33.98;28.55;96427.66;5016217;28;20492;-63
2022/06/30 06:52:38;;;;;;;9.70;1.80;;;;;;;33.96;27.45;96429.75;5015990;28;20100;-63
2022/06/30 06:55:07;;;;;;;6.85;2.20;;;;;;;33.97;27.90;96427.84;5015854;28;20476;-63
2022/06/30 06:57:35;;;;;;;7.15;2.10;;;;;;;34.05;29.36;96430.38;5015875;28;20058;-62
2022/06/30 07:00:06;;;;;;;7.60;1.95;;;;;;;34.25;29.01;96429.53;5015792;28;20510;-63
2022/06/30 07:02:34;;;;;;;7.35;2.15;;;;;;;34.47;29.29;96423.81;5015728;28;20046;-63
2022/06/30 07:05:01;;;;;;;6.35;2.47;;;;;;;34.08;29.89;96434.53;5015831;28;20085;-63
2022/06/30 07:07:29;;;;;;;5.72;2.10;;;;;;;34.12;28.75;96427.63;5015804;28;20125;-63
2022/06/30 07:09:56;;;;;;;4.50;1.88;;;;;;;34.40;28.88;96426.56;5015752;28;20060;-63
2022/06/30 07:12:23;;;;;;;8.07;2.22;;;;;;;34.49;26.04;96421.72;5015655;28;20056;-63
2022/06/30 07:14:50;;;;;;;3.92;2.03;;;;;;;34.51;27.15;96423.16;5015508;28;20108;-63
2022/06/30 07:17:19;;;;;;;6.47;1.90;;;;;;;34.46;26.17;96422.97;5015574;28;20496;-63
2022/06/30 07:19:47;;;;;;;8.98;2.80;;;;;;;34.46;25.50;96420.25;5015585;28;20145;-62
2022/06/30 07:22:14;;;;;;;4.57;2.40;;;;;;;34.42;28.28;96424.44;5015559;28;20066;-63
2022/06/30 07:24:41;;;;;;;8.45;3.75;;;;;;;34.31;27.61;96428.66;5014893;28;20107;-62
2022/06/30 07:27:08;;;;;;;7.20;2.80;;;;;;;33.97;26.39;96423.28;5015165;28;20057;-63
2022/06/30 07:29:35;;;;;;;12.77;3.45;;;;;;;33.80;26.67;96425.59;5015314;28;20042;-63
2022/06/30 07:32:03;;;;;;;6.45;3.00;;;;;;;34.06;27.31;96425.75;5015381;28;20045;-63
2022/06/30 07:34:31;;;;;;;4.65;3.05;;;;;;;34.33;26.18;96425.72;5015309;28;20046;-63
2022/06/30 07:36:59;;;;;;;6.95;2.80;;;;;;;34.16;27.93;96423.50;5015151;28;20050;-62
2022/06/30 07:39:27;;;;;;;9.75;3.13;;;;;;;34.46;26.96;96419.44;5015158;28;20061;-63
2022/06/30 07:41:55;;;;;;;9.93;2.88;;;;;;;34.71;25.79;96424.16;5015203;28;20489;-63
2022/06/30 07:44:22;;;;;;;4.43;2.80;;;;;;;34.50;27.73;96426.94;5015029;28;20046;-63
2022/06/30 07:46:49;;;;;;;7.00;3.15;;;;;;;34.45;25.98;96423.19;5014997;28;20056;-62
2022/06/30 07:49:17;;;;;;;5.05;3.13;;;;;;;34.31;26.77;96425.94;5015005;28;20081;-62
2022/06/30 07:51:45;;;;;;;9.15;3.97;;;;;;;33.94;27.51;96437.25;5014997;28;20111;-62
2022/06/30 07:54:12;;;;;;;5.32;3.90;;;;;;;33.73;27.00;96439.16;5014939;28;20104;-62
2022/06/30 07:56:39;;;;;;;5.45;3.63;;;;;;;33.44;28.19;96435.78;5014501;28;20058;-62
2022/06/30 07:59:07;;;;;;;6.07;3.55;;;;;;;33.17;27.46;96434.91;5014696;28;20145;-62
2022/06/30 08:01:34;;;;;;;10.07;3.47;;;;;;;32.93;26.79;96431.69;5014787;28;20480;-62
2022/06/30 08:04:01;;;;;;;5.72;3.38;;;;;;;32.55;26.67;96424.88;5014674;28;20046;-62
2022/06/30 08:06:28;;;;;;;4.63;2.63;;;;;;;32.64;27.97;96434.50;5014589;28;20050;-62
2022/06/30 08:08:57;;;;;;;6.50;2.90;;;;;;;32.84;26.68;96428.34;5014576;28;20052;-62
2022/06/30 08:11:24;;;;;;;7.05;2.65;;;;;;;32.71;27.88;96432.66;5014571;28;20045;-62
2022/06/30 08:13:51;;;;;;;5.93;2.80;;;;;;;33.02;29.48;96435.91;5014539;28;20052;-62
2022/06/30 08:16:18;;;;;;;4.82;2.50;;;;;;;33.20;27.64;96431.78;5014451;28;20050;-62
2022/06/30 08:18:46;;;;;;;12.40;2.80;;;;;;;33.10;28.53;96430.31;5014322;28;20137;-62
2022/06/30 08:21:13;;;;;;;3.15;2.85;;;;;;;33.24;28.07;96431.19;5014389;28;20511;-62
2022/06/30 08:23:41;;;;;;;6.13;2.92;;;;;;;33.00;27.67;96436.09;5014205;28;20045;-62
2022/06/30 08:26:09;;;;;;;5.85;3.13;;;;;;;33.24;28.64;96431.19;5014341;28;20081;-62
2022/06/30 08:28:37;;;;;;;9.10;3.22;;;;;;;33.40;29.31;96426.38;5014074;28;20058;-62
2022/06/30 08:31:05;;;;;;;6.07;2.92;;;;;;;33.64;28.01;96430.41;5014279;28;20050;-62
2022/06/30 08:33:32;;;;;;;5.20;2.90;;;;;;;33.50;27.27;96432.22;5014096;28;20100;-62
2022/06/30 08:36:00;;;;;;;6.10;2.83;;;;;;;33.19;29.21;96432.84;5013524;28;20060;-63
2022/06/30 08:38:29;;;;;;;6.30;2.58;;;;;;;33.39;30.94;96436.41;5013505;28;20082;-62
2022/06/30 08:43:43;;;;;;;5.20;2.67;;;;;;;33.94;29.24;96434.53;5013979;28;20143;-62
2022/06/30 08:46:13;;;;;;;5.15;3.10;;;;;;;34.44;28.70;96433.22;5013906;28;20129;-62
2022/06/30 08:48:41;;;;;;;4.03;2.83;;;;;;;34.59;27.78;96437.53;5013866;28;20053;-62
2022/06/30 08:51:09;;;;;;;7.03;2.90;;;;;;;34.32;29.01;96433.03;5013850;28;20053;-62
2022/06/30 08:53:41;;;;;;;5.78;2.67;;;;;;;34.37;29.54;96432.41;5013805;28;20077;-62
2022/06/30 08:56:09;;;;;;;8.95;3.03;;;;;;;34.50;29.16;96434.25;5013800;28;20061;-62
2022/06/30 08:58:37;;;;;;;11.70;3.25;;;;;;;34.61;29.07;96427.31;5013900;28;20128;-62
2022/06/30 09:01:06;;;;;;;4.43;2.53;;;;;;;34.10;29.17;96424.31;5013629;28;20050;-62
2022/06/30 09:03:36;;;;;;;3.78;2.60;;;;;;;33.95;30.83;96422.63;5013708;28;20042;-63
2022/06/30 09:06:05;;;;;;;9.32;2.85;;;;;;;33.78;30.77;96422.25;5013633;28;20095;-62
2022/06/30 09:08:32;;;;;;;9.02;2.70;;;;;;;33.82;31.75;96420.78;5013588;28;20492;-62
2022/06/30 09:11:00;;;;;;;9.23;3.05;;;;;;;33.87;30.06;96425.59;5013640;28;20100;-62
2022/06/30 09:13:41;;;;;;;13.55;2.75;;;;;;;34.18;30.01;96417.81;5013600;28;20050;-62
2022/06/30 09:16:11;;;;;;;7.80;2.70;;;;;;;34.32;28.61;96427.63;5013196;28;20054;-62
2022/06/30 09:18:38;;;;;;;;;;;;;;;34.03;31.62;96427.88;5013802;28;20061;-62
2022/06/30 09:21:15;;;;;;;3.50;2.50;;;;;;;33.99;29.87;96425.78;5013396;28;20379;-63
2022/06/30 09:23:45;;;;;;;4.75;2.70;;;;;;;33.87;28.78;96425.59;5013323;28;20133;-62
2022/06/30 09:26:20;;;;;;;8.45;2.50;;;;;;;33.65;32.02;96418.50;5013343;28;20053;-62
2022/06/30 09:28:50;;;;;;;11.00;3.30;;;;;;;33.90;31.08;96422.47;5013232;28;20401;-62
2022/06/30 09:31:34;;;;;;;7.53;2.53;;;;;;;33.69;28.72;96416.22;5013255;28;20447;-62
2022/06/30 09:34:16;;;;;;;5.28;2.80;;;;;;;33.78;30.02;96414.97;5013107;28;20104;-62
2022/06/30 09:36:45;;;;;;;10.52;2.50;;;;;;;33.87;28.83;96421.00;5013106;28;20140;-62
2022/06/30 09:39:16;;;;;;;6.77;2.40;;;;;;;33.82;29.79;96417.22;5013206;28;20519;-62
2022/06/30 09:41:45;;;;;;;5.63;2.33;;;;;;;33.70;29.19;96415.16;5013246;28;20045;-62
2022/06/30 09:44:20;;;;;;;8.27;2.60;;;;;;;33.59;29.47;96408.50;5013095;28;20046;-62
2022/06/30 09:47:00;;;;;;;3.72;2.33;;;;;;;33.81;29.67;96411.00;5013129;28;20046;-62
2022/06/30 09:49:32;;;;;;;16.13;2.87;;;;;;;33.27;30.12;96409.09;5016441;28;20061;-62
2022/06/30 09:52:00;;;;;;;8.40;2.60;;;;;;;32.98;30.10;96412.94;5017366;28;20050;-62
2022/06/30 09:54:31;;;;;;;10.05;2.47;;;;;;;33.03;29.51;96411.31;5017073;28;20046;-62
2022/06/30 09:57:03;;;;;;;7.68;3.08;;;;;;;33.06;28.23;96409.25;5016964;28;20089;-62
2022/06/30 09:59:31;;;;;;;6.68;2.30;;;;;;;33.06;29.26;96403.84;5017077;28;20050;-62
2022/06/30 10:02:00;;;;;;;3.30;2.13;;;;;;;33.30;31.92;96405.13;5017005;28;20056;-62
2022/06/30 10:04:29;;;;;;;7.53;2.17;;;;;;;33.31;29.38;96406.78;5017026;28;20085;-61
2022/06/30 10:06:57;;;;;;;6.47;2.38;;;;;;;33.25;29.63;96405.75;5016869;28;20128;-62
2022/06/30 10:09:25;;;;;;;9.82;2.58;;;;;;;33.18;29.43;96412.19;5016870;28;20137;-62
2022/06/30 10:11:55;;;;;;;7.55;2.30;;;;;;;33.07;29.60;96411.75;5016885;28;20133;-62
2022/06/30 10:14:27;;;;;;;8.35;2.20;;;;;;;32.85;29.24;96405.63;5016790;28;20502;-62
2022/06/30 10:16:54;;;;;;;5.95;2.10;;;;;;;32.81;29.39;96397.09;5016751;28;20058;-62
2022/06/30 10:19:23;;;;;;;6.55;2.65;;;;;;;32.99;30.69;96392.97;5016657;28;20042;-62
2022/06/30 10:21:50;;;;;;;10.20;2.70;;;;;;;33.04;31.96;96393.22;5016619;28;20049;-62
2022/06/30 10:24:20;;;;;;;8.15;2.28;;;;;;;33.43;31.34;96382.63;5016569;28;20053;-62
2022/06/30 10:29:34;;;;;;;9.18;2.25;;;;;;;33.86;29.96;96386.78;5016710;28;20053;-62
2022/06/30 10:32:08;;;;;;;5.15;2.22;;;;;;;34.07;29.99;96384.03;5016406;28;20407;-62
2022/06/30 10:34:42;;;;;;;8.80;2.00;;;;;;;34.17;29.69;96379.03;5016398;28;20060;-62
2022/06/30 10:37:18;;;;;;;5.00;1.70;;;;;;;34.22;30.30;96381.13;5016181;28;20058;-62
2022/06/30 10:39:52;;;;;;;4.13;2.15;;;;;;;33.67;28.45;96384.94;5016261;28;20062;-62
2022/06/30 10:42:44;;;;;;;8.63;2.30;;;;;;;33.17;29.35;96381.56;5016145;28;20050;-61
2022/06/30 10:45:36;;;;;;;4.13;1.83;;;;;;;32.87;31.06;96371.09;5005779;28;20056;-62
2022/06/30 10:48:05;;;;;;;4.72;2.20;;;;;;;33.09;29.74;96370.94;5016123;28;20049;-62
2022/06/30 10:50:36;;;;;;;5.60;2.22;;;;;;;33.32;30.76;96364.28;5016205;28;20077;-62
2022/06/30 10:53:05;;;;;;;7.00;2.45;;;;;;;33.45;26.94;96379.69;5016027;28;20050;-61
2022/06/30 10:55:44;;;;;;;5.00;1.70;;;;;;;33.29;28.56;96368.25;5016031;28;20089;-61
2022/06/30 10:58:12;;;;;;;9.38;2.05;;;;;;;33.25;29.17;96373.25;5015797;28;20049;-61
2022/06/30 11:01:00;;;;;;;9.20;2.22;;;;;;;32.69;27.63;96364.38;5014935;28;20049;-61
2022/06/30 11:04:01;;;;;;;8.55;2.20;;;;;;;32.82;31.36;96363.56;5015887;28;20178;-62
2022/06/30 11:07:07;;;;;;;5.63;2.25;;;;;;;32.87;28.31;96371.91;5015834;28;20054;-62
2022/06/30 11:10:00;;;;;;;5.68;1.85;;;;;;;32.92;28.72;96365.88;5015671;28;20092;-62
2022/06/30 11:12:56;;;;;;;4.93;1.75;;;;;;;32.75;27.88;96363.53;4996753;28;20472;-62
2022/06/30 11:15:24;;;;;;;5.20;1.92;;;;;;;32.69;29.62;96358.97;5015666;28;20096;-62
2022/06/30 11:17:54;;;;;;;7.47;2.03;;;;;;;32.60;29.15;96352.88;5015446;28;20050;-62
2022/06/30 11:20:21;;;;;;;5.10;1.95;;;;;;;32.65;28.86;96350.41;5015574;28;20093;-62
2022/06/30 11:22:54;;;;;;;8.93;2.40;;;;;;;32.75;30.33;96349.19;5015462;28;20499;-62
2022/06/30 11:28:15;;;;;;;6.32;2.10;;;;;;;32.35;30.03;96349.88;5015310;28;20073;-62
2022/06/30 11:30:43;;;;;;;6.57;2.30;;;;;;;32.57;31.62;96350.59;5015272;28;20081;-62
2022/06/30 11:33:10;;;;;;;7.88;2.15;;;;;;;32.64;31.29;96348.75;5015339;28;20049;-62
2022/06/30 11:35:37;;;;;;;3.58;2.00;;;;;;;32.80;30.68;96341.28;5015374;28;20046;-62
2022/06/30 11:38:06;;;;;;;5.90;1.80;;;;;;;32.69;26.86;96345.44;5015124;28;20058;-62
2022/06/30 11:40:36;;;;;;;8.10;1.63;;;;;;;32.72;27.21;96342.28;5015203;28;20053;-62
2022/06/30 11:43:22;;;;;;;5.60;1.90;;;;;;;32.83;28.18;96343.56;5015129;28;20489;-62
2022/06/30 11:45:49;;;;;;;5.88;1.80;;;;;;;32.82;28.77;96346.47;5014998;28;20526;-62
2022/06/30 11:48:22;;;;;;;6.07;1.60;;;;;;;32.64;29.54;96350.59;5014986;28;20141;-62
2022/06/30 11:50:50;;;;;;;9.88;2.15;;;;;;;32.65;31.01;96344.16;5014815;28;20050;-62
2022/06/30 11:53:18;;;;;;;8.70;2.10;;;;;;;32.72;28.97;96342.28;5014924;28;20050;-62
2022/06/30 11:55:46;;;;;;;8.40;2.10;;;;;;;32.60;29.68;96347.47;5014857;28;20057;-63
2022/06/30 11:58:14;;;;;;;6.05;2.10;;;;;;;32.45;31.04;96344.06;5014729;28;20045;-62
2022/06/30 12:00:42;;;;;;;5.78;1.70;;;;;;;32.45;29.31;96335.94;5014730;28;20046;-62